createdAt,value
2023-04-02T00:00:29.610Z,99003.92
2023-04-02T00:01:39.330Z,99009.22
2023-04-02T00:02:57.071Z,99008.38
2023-04-02T00:04:03.415Z,99008.27
2023-04-02T00:05:18.442Z,99014.23
2023-04-02T00:06:30.019Z,99007.33
2023-04-02T00:07:32.204Z,99005.42
2023-04-02T00:08:39.472Z,99014.14
2023-04-02T00:09:42.532Z,99007.12
2023-04-02T00:10:51.220Z,99005.23
2023-04-02T00:11:54.267Z,99008.60
2023-04-02T00:13:01.682Z,99010.41
2023-04-02T00:14:07.593Z,99013.19
2023-04-02T00:15:11.988Z,99006.93
2023-04-02T00:16:18.928Z,99005.23
2023-04-02T00:17:24.514Z,99006.17
2023-04-02T00:18:27.154Z,99012.33
2023-04-02T00:19:39.163Z,99015.84
2023-04-02T00:21:58.620Z,99014.06
2023-04-02T00:23:03.042Z,99015.84
2023-04-02T00:24:11.910Z,99013.19
2023-04-02T00:25:14.633Z,99006.93
2023-04-02T00:26:22.546Z,99013.91
2023-04-02T00:27:24.998Z,99009.45
2023-04-02T00:28:27.054Z,99012.23
2023-04-02T00:29:30.082Z,99019.11
2023-04-02T00:30:32.186Z,99015.70
2023-04-02T00:31:38.369Z,99013.71
2023-04-02T00:32:42.140Z,99017.31
2023-04-02T00:33:45.357Z,99016.56
2023-04-02T00:34:49.271Z,99026.32
2023-04-02T00:35:54.283Z,99015.70
2023-04-02T00:36:58.259Z,99013.28
2023-04-02T00:38:01.721Z,99016.03
2023-04-02T00:39:08.494Z,99016.03
2023-04-02T00:40:17.967Z,99022.19
2023-04-02T00:41:23.678Z,99021.34
2023-04-02T00:42:27.802Z,99019.54
2023-04-02T00:43:36.354Z,99014.14
2023-04-02T00:44:41.993Z,99019.21
2023-04-02T00:45:46.876Z,99013.91
2023-04-02T00:46:50.696Z,99014.66
2023-04-02T00:47:53.219Z,99012.01
2023-04-02T00:50:34.855Z,99014.59
2023-04-02T00:52:56.958Z,99008.33
2023-04-02T00:54:02.986Z,99015.41
2023-04-02T00:55:14.923Z,99026.02
2023-04-02T00:56:20.962Z,99019.67
2023-04-02T00:57:25.561Z,99020.72
2023-04-02T00:58:32.083Z,99015.41
2023-04-02T00:59:37.686Z,99023.47
2023-04-02T01:00:40.159Z,99017.31
2023-04-02T01:01:43.890Z,99024.32
2023-04-02T01:03:06.631Z,99024.32
2023-04-02T01:05:26.958Z,99020.98
2023-04-02T01:06:36.051Z,99019.44
2023-04-02T01:07:59.801Z,99018.49
2023-04-02T01:09:27.606Z,99033.45
2023-04-02T01:10:39.258Z,99032.28
2023-04-02T01:11:45.163Z,99028.77
2023-04-02T01:13:20.763Z,99033.23
2023-04-02T01:15:58.878Z,99030.51
2023-04-02T01:18:51.017Z,99028.09
2023-04-02T01:20:28.856Z,99029.20
2023-04-02T01:21:53.085Z,99037.91
2023-04-02T01:23:05.552Z,99032.37
2023-04-02T01:24:13.382Z,99028.77
2023-04-02T01:25:19.301Z,99030.58
2023-04-02T01:26:30.927Z,99033.45
2023-04-02T01:27:49.133Z,99031.75
2023-04-02T01:29:06.852Z,99029.83
2023-04-02T01:30:11.085Z,99037.06
2023-04-02T01:31:15.696Z,99032.80
2023-04-02T01:32:20.978Z,99040.56
2023-04-02T01:33:28.087Z,99032.61
2023-04-02T01:34:31.267Z,99036.20
2023-04-02T01:35:37.326Z,99039.71
2023-04-02T01:36:55.355Z,99030.05
2023-04-02T01:39:40.687Z,99035.30
2023-04-02T01:40:55.472Z,99036.30
2023-04-02T01:42:01.389Z,99038.77
2023-04-02T01:43:13.725Z,99034.93
2023-04-02T01:45:30.122Z,99034.96
2023-04-02T01:46:35.239Z,99036.11
2023-04-02T01:47:39.011Z,99031.53
2023-04-02T01:50:00.207Z,99035.06
2023-04-02T01:51:06.210Z,99033.45
2023-04-02T01:52:10.799Z,99027.40
2023-04-02T01:53:15.977Z,99037.06
2023-04-02T01:54:19.489Z,99032.70
2023-04-02T01:55:43.868Z,99035.26
2023-04-02T01:56:47.224Z,99037.06
2023-04-02T01:57:52.997Z,99033.66
2023-04-02T01:58:59.144Z,99035.55
2023-04-02T02:00:04.727Z,99026.64
2023-04-02T02:01:18.718Z,99033.00
2023-04-02T02:02:22.520Z,99032.14
2023-04-02T02:03:25.739Z,99040.10
2023-04-02T02:04:28.877Z,99036.59
2023-04-02T02:05:32.062Z,99039.16
2023-04-02T02:06:35.119Z,99037.55
2023-04-02T02:07:38.275Z,99036.50
2023-04-02T02:09:02.492Z,99035.55
2023-04-02T02:10:06.282Z,99034.80
2023-04-02T02:11:12.050Z,99032.90
2023-04-02T02:12:15.367Z,99030.25
2023-04-02T02:13:17.900Z,99031.95
2023-04-02T02:14:23.118Z,99035.55
2023-04-02T02:15:27.137Z,99031.09
2023-04-02T02:16:30.278Z,99035.75
2023-04-02T02:17:33.108Z,99039.34
2023-04-02T02:18:35.754Z,99035.75
2023-04-02T02:19:40.847Z,99042.75
2023-04-02T02:20:43.918Z,99032.53
2023-04-02T02:23:03.010Z,99040.66
2023-04-02T02:24:09.443Z,99034.56
2023-04-02T02:25:17.980Z,99035.51
2023-04-02T02:26:23.829Z,99041.66
2023-04-02T02:27:30.771Z,99042.42
2023-04-02T02:28:38.448Z,99037.21
2023-04-02T02:29:42.388Z,99033.39
2023-04-02T02:30:48.464Z,99033.39
2023-04-02T02:31:53.754Z,99041.47
2023-04-02T02:33:12.160Z,99035.94
2023-04-02T02:34:24.369Z,99038.69
2023-04-02T02:36:48.384Z,99035.98
2023-04-02T02:38:11.212Z,99037.84
2023-04-02T02:40:31.808Z,99033.45
2023-04-02T02:41:40.469Z,99030.73
2023-04-02T02:44:01.435Z,99032.70
2023-04-02T02:45:08.152Z,99036.36
2023-04-02T02:46:14.206Z,99040.48
2023-04-02T02:47:20.143Z,99036.89
2023-04-02T02:48:26.274Z,99039.64
2023-04-02T02:50:41.241Z,99038.20
2023-04-02T02:53:05.700Z,99043.80
2023-04-02T02:54:08.716Z,99039.59
2023-04-02T02:56:28.832Z,99037.84
2023-04-02T02:57:34.865Z,99048.72
2023-04-02T02:58:37.863Z,99044.98
2023-04-02T02:59:42.937Z,99046.79
2023-04-02T03:00:46.055Z,99044.13
2023-04-02T03:01:49.427Z,99047.55
2023-04-02T03:02:55.788Z,99046.59
2023-04-02T03:04:00.362Z,99036.75
2023-04-02T03:05:05.405Z,99039.49
2023-04-02T03:06:11.883Z,99038.83
2023-04-02T03:07:16.201Z,99044.13
2023-04-02T03:08:22.239Z,99044.04
2023-04-02T03:09:40.086Z,99050.20
2023-04-02T03:10:52.177Z,99047.55
2023-04-02T03:12:04.055Z,99051.80
2023-04-02T03:14:34.000Z,99051.09
2023-04-02T03:17:22.565Z,99046.97
2023-04-02T03:18:32.214Z,99055.91
2023-04-02T03:19:47.175Z,99055.72
2023-04-02T03:20:53.068Z,99056.67
2023-04-02T03:22:04.970Z,99052.22
2023-04-02T03:23:34.081Z,99062.06
2023-04-02T03:24:55.502Z,99062.83
2023-04-02T03:26:13.376Z,99065.57
2023-04-02T03:27:22.991Z,99062.16
2023-04-02T03:29:43.591Z,99063.36
2023-04-02T03:30:56.008Z,99066.14
2023-04-02T03:32:10.985Z,99062.54
2023-04-02T03:34:34.982Z,99065.16
2023-04-02T03:35:41.287Z,99068.88
2023-04-02T03:36:50.435Z,99066.98
2023-04-02T03:38:02.545Z,99064.44
2023-04-02T03:40:41.232Z,99061.75
2023-04-02T03:41:47.920Z,99064.56
2023-04-02T03:43:02.099Z,99068.03
2023-04-02T03:44:08.067Z,99070.59
2023-04-02T03:45:15.901Z,99063.48
2023-04-02T03:46:30.721Z,99073.14
2023-04-02T03:50:54.055Z,99067.27
2023-04-02T03:52:12.035Z,99071.84
2023-04-02T03:53:14.891Z,99081.19
2023-04-02T03:54:17.717Z,99081.95
2023-04-02T03:55:29.982Z,99078.54
2023-04-02T03:56:35.893Z,99076.20
2023-04-02T03:57:41.884Z,99084.16
2023-04-02T03:58:48.181Z,99078.86
2023-04-02T04:00:03.362Z,99084.34
2023-04-02T04:02:46.645Z,99082.61
2023-04-02T04:03:59.320Z,99083.58
2023-04-02T04:05:04.954Z,99087.94
2023-04-02T04:06:18.008Z,99082.64
2023-04-02T04:07:33.987Z,99089.64
2023-04-02T04:08:52.129Z,99091.53
2023-04-02T04:09:56.259Z,99080.94
2023-04-02T04:11:02.281Z,99091.34
2023-04-02T04:12:11.024Z,99091.34
2023-04-02T04:13:16.699Z,99091.34
2023-04-02T04:14:22.571Z,99094.09
2023-04-02T04:15:28.371Z,99085.20
2023-04-02T04:16:49.415Z,99091.34
2023-04-02T04:18:10.419Z,99092.30
2023-04-02T04:19:18.218Z,99093.91
2023-04-02T04:20:30.240Z,99093.05
2023-04-02T04:21:32.578Z,99097.41
2023-04-02T04:22:36.876Z,99090.41
2023-04-02T04:23:47.067Z,99093.23
2023-04-02T04:24:50.489Z,99098.54
2023-04-02T04:25:58.673Z,99103.84
2023-04-02T04:28:28.196Z,99104.95
2023-04-02T04:29:53.071Z,99098.91
2023-04-02T04:31:04.716Z,99103.17
2023-04-02T04:33:34.216Z,99100.70
2023-04-02T04:34:45.198Z,99102.51
2023-04-02T04:35:54.773Z,99108.78
2023-04-02T04:37:01.018Z,99109.73
2023-04-02T04:39:43.365Z,99098.17
2023-04-02T04:40:52.465Z,99110.45
2023-04-02T04:41:59.619Z,99107.63
2023-04-02T04:44:18.119Z,99104.11
2023-04-02T04:47:13.387Z,99104.95
2023-04-02T04:48:27.359Z,99105.92
2023-04-02T04:50:56.855Z,99107.70
2023-04-02T04:52:09.594Z,99114.81
2023-04-02T04:53:21.849Z,99114.81
2023-04-02T04:54:27.463Z,99120.02
2023-04-02T04:55:39.886Z,99117.28
2023-04-02T04:57:58.823Z,99111.11
2023-04-02T04:59:20.146Z,99124.28
2023-04-02T05:00:29.075Z,99116.52
2023-04-02T05:01:44.350Z,99115.30
2023-04-02T05:04:32.152Z,99117.36
2023-04-02T05:05:38.600Z,99119.08
2023-04-02T05:07:08.121Z,99121.55
2023-04-02T05:08:20.582Z,99119.56
2023-04-02T05:09:26.552Z,99122.97
2023-04-02T05:11:44.860Z,99118.59
2023-04-02T05:12:56.894Z,99118.52
2023-04-02T05:14:09.592Z,99126.35
2023-04-02T05:16:42.481Z,99123.30
2023-04-02T05:18:05.023Z,99129.39
2023-04-02T05:20:26.872Z,99131.26
2023-04-02T05:21:48.673Z,99129.48
2023-04-02T05:23:07.098Z,99130.15
2023-04-02T05:27:26.788Z,99129.37
2023-04-02T05:28:39.915Z,99122.38
2023-04-02T05:29:46.753Z,99126.55
2023-04-02T05:30:59.834Z,99132.70
2023-04-02T05:32:15.457Z,99138.10
2023-04-02T05:33:25.133Z,99125.79
2023-04-02T05:34:32.074Z,99129.39
2023-04-02T05:35:38.406Z,99139.81
2023-04-02T05:36:44.857Z,99132.61
2023-04-02T05:37:47.973Z,99139.59
2023-04-02T05:38:52.808Z,99141.42
2023-04-02T05:39:59.903Z,99144.16
2023-04-02T05:41:25.523Z,99137.06
2023-04-02T05:42:31.816Z,99135.27
2023-04-02T05:43:38.703Z,99143.00
2023-04-02T05:44:44.909Z,99135.98
2023-04-02T05:47:26.542Z,99138.84
2023-04-02T05:48:41.350Z,99137.06
2023-04-02T05:49:56.534Z,99138.86
2023-04-02T05:51:00.473Z,99139.59
2023-04-02T05:52:08.121Z,99142.14
2023-04-02T05:54:34.553Z,99143.92
2023-04-02T05:55:45.730Z,99141.30
2023-04-02T05:56:52.868Z,99145.74
2023-04-02T05:58:21.269Z,99143.00
2023-04-02T05:59:12.569Z,99140.44
2023-04-02T06:00:33.766Z,99147.45
2023-04-02T06:01:55.181Z,99145.02
2023-04-02T06:03:05.493Z,99140.44
2023-04-02T06:04:31.073Z,99139.59
2023-04-02T06:05:37.919Z,99155.50
2023-04-02T06:06:43.890Z,99153.82
2023-04-02T06:07:51.189Z,99145.87
2023-04-02T06:09:00.233Z,99152.30
2023-04-02T06:10:09.578Z,99154.10
2023-04-02T06:11:26.447Z,99156.75
2023-04-02T06:12:32.956Z,99152.48
2023-04-02T06:13:36.387Z,99154.10
2023-04-02T06:14:39.722Z,99159.31
2023-04-02T06:15:43.052Z,99154.01
2023-04-02T06:16:48.171Z,99153.16
2023-04-02T06:18:03.442Z,99152.30
2023-04-02T06:19:09.509Z,99161.66
2023-04-02T06:20:17.125Z,99157.52
2023-04-02T06:21:21.609Z,99160.07
2023-04-02T06:22:38.350Z,99161.02
2023-04-02T06:23:45.219Z,99159.12
2023-04-02T06:24:51.096Z,99155.50
2023-04-02T06:26:03.411Z,99164.61
2023-04-02T06:27:08.381Z,99166.50
2023-04-02T06:29:34.399Z,99162.98
2023-04-02T06:30:40.752Z,99166.50
2023-04-02T06:31:52.435Z,99165.65
2023-04-02T06:32:56.161Z,99168.21
2023-04-02T06:33:58.471Z,99172.48
2023-04-02T06:35:02.691Z,99168.97
2023-04-02T06:36:07.977Z,99168.02
2023-04-02T06:37:18.777Z,99170.67
2023-04-02T06:38:28.326Z,99171.41
2023-04-02T06:39:30.950Z,99167.81
2023-04-02T06:40:50.986Z,99174.91
2023-04-02T06:42:05.092Z,99168.02
2023-04-02T06:43:31.192Z,99168.02
2023-04-02T06:44:37.219Z,99178.63
2023-04-02T06:45:47.900Z,99173.33
2023-04-02T06:46:55.852Z,99175.22
2023-04-02T06:48:02.238Z,99178.81
2023-04-02T06:49:19.466Z,99175.98
2023-04-02T06:51:37.952Z,99172.73
2023-04-02T06:52:47.064Z,99173.61
2023-04-02T06:53:50.614Z,99178.81
2023-04-02T06:54:54.484Z,99171.80
2023-04-02T06:56:13.443Z,99179.67
2023-04-02T06:57:16.387Z,99180.52
2023-04-02T06:58:21.160Z,99186.77
2023-04-02T06:59:24.534Z,99178.81
2023-04-02T07:00:42.669Z,99175.22
2023-04-02T07:03:27.901Z,99184.87
2023-04-02T07:04:34.288Z,99183.17
2023-04-02T07:05:38.491Z,99180.34
2023-04-02T07:06:41.897Z,99183.72
2023-04-02T07:07:44.570Z,99189.78
2023-04-02T07:08:48.205Z,99192.44
2023-04-02T07:09:51.220Z,99184.48
2023-04-02T07:10:54.457Z,99185.42
2023-04-02T07:11:57.076Z,99188.84
2023-04-02T07:12:59.812Z,99188.17
2023-04-02T07:14:02.371Z,99193.28
2023-04-02T07:15:06.314Z,99193.28
2023-04-02T07:16:18.775Z,99199.44
2023-04-02T07:17:21.240Z,99201.15
2023-04-02T07:18:32.123Z,99198.50
2023-04-02T07:19:36.245Z,99193.95
2023-04-02T07:20:39.273Z,99197.37
2023-04-02T07:21:43.446Z,99198.31
2023-04-02T07:22:45.717Z,99198.31
2023-04-02T07:23:48.863Z,99200.87
2023-04-02T07:24:50.958Z,99203.80
2023-04-02T07:25:54.514Z,99200.11
2023-04-02T07:26:56.660Z,99208.16
2023-04-02T07:27:58.828Z,99207.13
2023-04-02T07:29:02.052Z,99207.21
2023-04-02T07:30:06.011Z,99200.97
2023-04-02T07:31:21.552Z,99206.27
2023-04-02T07:32:24.132Z,99207.30
2023-04-02T07:33:29.181Z,99208.16
2023-04-02T07:34:31.203Z,99208.16
2023-04-02T07:35:33.567Z,99213.64
2023-04-02T07:36:36.777Z,99208.34
2023-04-02T07:37:39.245Z,99201.33
2023-04-02T07:38:41.516Z,99208.53
2023-04-02T07:39:44.754Z,99209.37
2023-04-02T07:40:47.174Z,99204.93
2023-04-02T07:43:05.189Z,99209.86
2023-04-02T07:44:09.172Z,99210.81
2023-04-02T07:45:12.025Z,99205.52
2023-04-02T07:46:16.103Z,99209.87
2023-04-02T07:47:19.534Z,99212.43
2023-04-02T07:48:21.772Z,99211.58
2023-04-02T07:49:23.997Z,99214.98
2023-04-02T07:50:26.168Z,99212.34
2023-04-02T07:51:28.524Z,99205.42
2023-04-02T07:52:30.617Z,99214.13
2023-04-02T07:53:37.057Z,99222.94
2023-04-02T07:54:39.744Z,99213.19
2023-04-02T07:55:41.778Z,99207.03
2023-04-02T07:56:44.668Z,99212.34
2023-04-02T07:57:50.019Z,99212.25
2023-04-02T07:58:52.224Z,99216.61
2023-04-02T07:59:54.882Z,99207.03
2023-04-02T08:00:59.235Z,99214.05
2023-04-02T08:02:02.632Z,99216.70
2023-04-02T08:03:05.473Z,99214.05
2023-04-02T08:04:17.017Z,99213.09
2023-04-02T08:05:19.564Z,99214.81
2023-04-02T08:06:23.594Z,99213.64
2023-04-02T08:07:27.621Z,99208.34
2023-04-02T08:08:30.810Z,99210.91
2023-04-02T08:09:34.100Z,99220.47
2023-04-02T08:10:36.757Z,99211.57
2023-04-02T08:11:38.913Z,99215.93
2023-04-02T08:12:40.983Z,99218.67
2023-04-02T08:13:43.737Z,99215.17
2023-04-02T08:14:45.892Z,99221.51
2023-04-02T08:15:48.340Z,99218.77
2023-04-02T08:16:53.653Z,99220.56
2023-04-02T08:17:56.460Z,99214.31
2023-04-02T08:19:00.959Z,99222.36
2023-04-02T08:20:03.741Z,99226.72
2023-04-02T08:21:08.354Z,99223.22
2023-04-02T08:22:11.531Z,99219.71
2023-04-02T08:23:14.838Z,99228.61
2023-04-02T08:24:18.530Z,99218.77
2023-04-02T08:25:20.676Z,99220.47
2023-04-02T08:27:31.826Z,99213.55
2023-04-02T08:28:34.773Z,99217.24
2023-04-02T08:29:36.969Z,99223.30
2023-04-02T08:30:39.586Z,99215.53
2023-04-02T08:31:41.693Z,99220.84
2023-04-02T08:32:43.960Z,99220.66
2023-04-02T08:33:46.639Z,99217.06
2023-04-02T08:34:48.911Z,99221.41
2023-04-02T08:35:51.569Z,99225.77
2023-04-02T08:36:58.180Z,99227.48
2023-04-02T08:38:00.351Z,99227.30
2023-04-02T08:39:03.754Z,99228.79
2023-04-02T08:40:09.692Z,99226.71
2023-04-02T08:41:21.717Z,99233.63
2023-04-02T08:42:36.112Z,99224.64
2023-04-02T08:43:54.152Z,99232.59
2023-04-02T08:45:20.847Z,99230.80
2023-04-02T08:46:26.107Z,99236.09
2023-04-02T08:47:29.750Z,99233.54
2023-04-02T08:48:35.140Z,99232.88
2023-04-02T08:49:43.390Z,99226.71
2023-04-02T08:50:46.561Z,99233.81
2023-04-02T08:51:49.377Z,99227.56
2023-04-02T08:52:51.733Z,99234.67
2023-04-02T08:53:57.897Z,99239.98
2023-04-02T08:55:02.207Z,99239.22
2023-04-02T08:56:32.574Z,99239.39
2023-04-02T08:57:48.542Z,99237.91
2023-04-02T08:58:54.342Z,99236.30
2023-04-02T09:00:12.199Z,99243.39
2023-04-02T09:01:37.844Z,99240.65
2023-04-02T09:02:59.847Z,99241.50
2023-04-02T09:04:05.642Z,99245.86
2023-04-02T09:05:12.801Z,99242.36
2023-04-02T09:06:18.704Z,99241.32
2023-04-02T09:07:21.011Z,99251.93
2023-04-02T09:08:25.612Z,99254.67
2023-04-02T09:09:28.448Z,99251.93
2023-04-02T09:10:37.069Z,99250.22
2023-04-02T09:11:46.234Z,99251.08
2023-04-02T09:12:51.502Z,99253.64
2023-04-02T09:14:00.320Z,99249.06
2023-04-02T09:16:24.198Z,99254.36
2023-04-02T09:17:26.936Z,99255.31
2023-04-02T09:18:31.567Z,99251.93
2023-04-02T09:19:40.453Z,99257.23
2023-04-02T09:20:45.007Z,99257.33
2023-04-02T09:22:07.509Z,99262.54
2023-04-02T09:23:16.711Z,99256.38
2023-04-02T09:24:18.819Z,99257.41
2023-04-02T09:25:26.168Z,99259.22
2023-04-02T09:26:31.166Z,99254.00
2023-04-02T09:27:35.658Z,99258.55
2023-04-02T09:28:38.365Z,99263.08
2023-04-02T09:29:43.577Z,99264.79
2023-04-02T09:30:58.855Z,99264.97
2023-04-02T09:32:23.462Z,99262.32
2023-04-02T09:33:46.215Z,99257.96
2023-04-02T09:34:48.872Z,99264.97
2023-04-02T09:35:57.231Z,99262.53
2023-04-02T09:39:37.467Z,99261.02
2023-04-02T09:42:24.852Z,99264.61
2023-04-02T09:43:30.723Z,99271.52
2023-04-02T09:44:33.653Z,99274.08
2023-04-02T09:45:36.288Z,99267.92
2023-04-02T09:47:57.630Z,99265.38
2023-04-02T09:49:01.531Z,99271.70
2023-04-02T09:51:27.631Z,99272.66
2023-04-02T09:52:30.329Z,99270.08
2023-04-02T09:53:35.784Z,99277.00
2023-04-02T09:54:38.198Z,99282.13
2023-04-02T09:55:40.268Z,99272.38
2023-04-02T09:57:01.594Z,99278.44
2023-04-02T09:58:13.362Z,99281.09
2023-04-02T09:59:17.807Z,99278.44
2023-04-02T10:00:32.160Z,99276.64
2023-04-02T10:01:38.613Z,99277.47
2023-04-02T10:02:41.271Z,99277.28
2023-04-02T10:03:44.051Z,99277.95
2023-04-02T10:04:49.479Z,99277.95
2023-04-02T10:06:07.204Z,99280.52
2023-04-02T10:07:31.344Z,99280.52
2023-04-02T10:08:34.824Z,99273.33
2023-04-02T10:09:37.632Z,99280.16
2023-04-02T10:11:54.913Z,99272.48
2023-04-02T10:13:03.841Z,99280.52
2023-04-02T10:14:22.404Z,99277.20
2023-04-02T10:15:31.076Z,99278.14
2023-04-02T10:16:40.955Z,99280.88
2023-04-02T10:17:45.423Z,99281.83
2023-04-02T10:19:13.284Z,99280.23
2023-04-02T10:20:21.858Z,99278.71
2023-04-02T10:22:43.970Z,99283.74
2023-04-02T10:23:46.766Z,99291.68
2023-04-02T10:24:50.522Z,99281.08
2023-04-02T10:27:28.182Z,99284.87
2023-04-02T10:31:55.891Z,99296.15
2023-04-02T10:33:19.977Z,99293.27
2023-04-02T10:34:31.729Z,99289.59
2023-04-02T10:36:58.855Z,99300.88
2023-04-02T10:38:08.086Z,99298.13
2023-04-02T10:40:57.071Z,99295.48
2023-04-02T10:42:06.091Z,99298.89
2023-04-02T10:43:24.698Z,99298.67
2023-04-02T10:44:56.505Z,99302.86
2023-04-02T10:47:23.516Z,99296.34
2023-04-02T10:48:44.438Z,99299.67
2023-04-02T10:50:24.144Z,99307.32
2023-04-02T10:51:39.297Z,99300.80
2023-04-02T10:54:10.024Z,99299.67
2023-04-02T10:56:44.015Z,99299.09
2023-04-02T10:57:44.312Z,99300.03
2023-04-02T10:58:57.454Z,99302.51
2023-04-02T11:00:04.067Z,99307.72
2023-04-02T11:01:12.627Z,99303.81
2023-04-02T11:02:50.839Z,99307.42
2023-04-02T11:03:58.126Z,99304.48
2023-04-02T11:06:22.386Z,99297.75
2023-04-02T11:07:28.268Z,99306.78
2023-04-02T11:08:43.391Z,99303.36
2023-04-02T11:09:49.705Z,99311.23
2023-04-02T11:12:09.960Z,99294.73
2023-04-02T11:13:34.772Z,99303.55
2023-04-02T11:14:37.425Z,99309.70
2023-04-02T11:15:40.399Z,99305.07
2023-04-02T11:16:45.096Z,99309.34
2023-04-02T11:17:48.306Z,99309.13
2023-04-02T11:19:17.603Z,99311.41
2023-04-02T11:20:43.175Z,99303.27
2023-04-02T11:23:18.421Z,99307.03
2023-04-02T11:24:33.776Z,99307.98
2023-04-02T11:25:36.277Z,99305.52
2023-04-02T11:26:41.487Z,99308.94
2023-04-02T11:27:44.288Z,99307.98
2023-04-02T11:28:48.134Z,99309.70
2023-04-02T11:30:09.253Z,99308.56
2023-04-02T11:31:15.163Z,99309.33
2023-04-02T11:32:24.062Z,99310.06
2023-04-02T11:33:39.346Z,99308.16
2023-04-02T11:36:01.317Z,99315.83
2023-04-02T11:37:07.789Z,99315.66
2023-04-02T11:38:13.534Z,99320.66
2023-04-02T11:39:46.634Z,99317.37
2023-04-02T11:40:54.446Z,99319.17
2023-04-02T11:42:03.453Z,99311.97
2023-04-02T11:43:35.472Z,99319.80
2023-04-02T11:44:37.799Z,99320.78
2023-04-02T11:45:52.874Z,99320.66
2023-04-02T11:46:52.931Z,99317.91
2023-04-02T11:48:24.226Z,99323.31
2023-04-02T11:49:35.244Z,99324.30
2023-04-02T11:50:40.264Z,99321.32
2023-04-02T11:51:49.691Z,99323.13
2023-04-02T11:52:56.837Z,99320.47
2023-04-02T11:53:59.594Z,99326.73
2023-04-02T11:58:05.990Z,99322.69
2023-04-02T12:01:02.942Z,99319.72
2023-04-02T12:02:15.015Z,99323.31
2023-04-02T12:03:30.048Z,99333.74
2023-04-02T12:06:25.058Z,99328.44
2023-04-02T12:07:47.259Z,99323.31
2023-04-02T12:09:11.560Z,99324.73
2023-04-02T12:10:18.827Z,99319.34
2023-04-02T12:11:30.350Z,99318.42
2023-04-02T12:12:39.075Z,99328.85
2023-04-02T12:13:44.815Z,99321.64
2023-04-02T12:14:48.371Z,99324.17
2023-04-02T12:15:52.077Z,99322.37
2023-04-02T12:16:55.075Z,99328.54
2023-04-02T12:18:13.051Z,99328.44
2023-04-02T12:19:16.769Z,99330.34
2023-04-02T12:20:22.789Z,99322.28
2023-04-02T12:21:28.607Z,99329.39
2023-04-02T12:22:32.823Z,99326.73
2023-04-02T12:23:36.541Z,99333.22
2023-04-02T12:24:41.621Z,99340.11
2023-04-02T12:25:47.573Z,99337.58
2023-04-02T12:28:17.728Z,99336.70
2023-04-02T12:29:28.245Z,99334.35
2023-04-02T12:30:32.289Z,99336.91
2023-04-02T12:31:34.542Z,99336.91
2023-04-02T12:32:36.599Z,99337.92
2023-04-02T12:33:40.700Z,99339.81
2023-04-02T12:34:45.363Z,99336.21
2023-04-02T12:35:50.274Z,99338.11
2023-04-02T12:38:20.749Z,99333.22
2023-04-02T12:39:25.825Z,99333.20
2023-04-02T12:40:28.672Z,99332.34
2023-04-02T12:41:34.261Z,99338.52
2023-04-02T12:42:37.294Z,99337.66
2023-04-02T12:43:40.068Z,99334.06
2023-04-02T12:44:45.977Z,99337.56
2023-04-02T12:45:53.796Z,99334.06
2023-04-02T12:46:58.213Z,99335.73
2023-04-02T12:48:04.164Z,99337.25
2023-04-02T12:50:20.676Z,99330.75
2023-04-02T12:51:23.469Z,99335.28
2023-04-02T12:52:28.555Z,99338.88
2023-04-02T12:53:37.123Z,99339.64
2023-04-02T12:54:51.662Z,99333.20
2023-04-02T12:55:55.154Z,99336.80
2023-04-02T12:57:17.796Z,99337.66
2023-04-02T12:58:32.080Z,99337.66
2023-04-02T12:59:36.325Z,99340.41
2023-04-02T13:00:39.260Z,99337.94
2023-04-02T13:01:46.188Z,99341.72
2023-04-02T13:02:51.274Z,99343.34
2023-04-02T13:05:12.668Z,99341.04
2023-04-02T13:06:21.498Z,99339.25
2023-04-02T13:07:25.601Z,99339.25
2023-04-02T13:08:30.800Z,99336.50
2023-04-02T13:09:42.700Z,99337.55
2023-04-02T13:10:46.676Z,99337.36
2023-04-02T13:11:48.875Z,99337.36
2023-04-02T13:13:02.414Z,99332.81
2023-04-02T13:14:08.288Z,99338.88
2023-04-02T13:16:35.072Z,99341.52
2023-04-02T13:18:56.647Z,99336.40
2023-04-02T13:20:03.022Z,99337.27
2023-04-02T13:21:20.065Z,99331.86
2023-04-02T13:22:32.083Z,99329.21
2023-04-02T13:23:36.392Z,99328.27
2023-04-02T13:24:38.680Z,99336.23
2023-04-02T13:25:41.133Z,99337.36
2023-04-02T13:26:43.424Z,99332.81
2023-04-02T13:27:46.178Z,99332.81
2023-04-02T13:29:04.065Z,99337.17
2023-04-02T13:31:18.846Z,99339.23
2023-04-02T13:32:20.962Z,99335.87
2023-04-02T13:33:23.532Z,99334.80
2023-04-02T13:34:26.865Z,99334.16
2023-04-02T13:35:29.002Z,99338.30
2023-04-02T13:36:31.245Z,99339.47
2023-04-02T13:37:33.448Z,99335.11
2023-04-02T13:38:35.459Z,99339.38
2023-04-02T13:39:38.466Z,99337.76
2023-04-02T13:40:41.297Z,99333.95
2023-04-02T13:42:00.174Z,99339.47
2023-04-02T13:43:04.049Z,99335.65
2023-04-02T13:44:07.525Z,99331.29
2023-04-02T13:45:25.816Z,99339.06
2023-04-02T13:46:34.634Z,99333.95
2023-04-02T13:47:39.144Z,99330.34
2023-04-02T13:48:41.239Z,99334.16
2023-04-02T13:49:43.852Z,99335.11
2023-04-02T13:50:46.153Z,99333.58
2023-04-02T13:51:51.516Z,99332.63
2023-04-02T13:52:57.230Z,99328.09
2023-04-02T13:53:59.561Z,99325.53
2023-04-02T13:55:03.020Z,99334.16
2023-04-02T13:56:06.223Z,99342.40
2023-04-02T13:57:09.327Z,99335.29
2023-04-02T13:58:12.132Z,99335.11
2023-04-02T13:59:14.469Z,99338.61
2023-04-02T14:00:17.686Z,99338.80
2023-04-02T14:01:22.981Z,99334.34
2023-04-02T14:02:25.495Z,99341.36
2023-04-02T14:03:29.157Z,99335.11
2023-04-02T14:04:35.005Z,99343.92
2023-04-02T14:06:10.586Z,99337.95
2023-04-02T14:07:28.662Z,99338.70
2023-04-02T14:08:35.461Z,99335.87
2023-04-02T14:09:57.759Z,99341.91
2023-04-02T14:12:47.773Z,99339.05
2023-04-02T14:14:11.822Z,99344.56
2023-04-02T14:15:21.077Z,99342.67
2023-04-02T14:18:03.997Z,99336.71
2023-04-02T14:19:20.294Z,99337.85
2023-04-02T14:20:46.579Z,99352.65
2023-04-02T14:22:09.618Z,99337.55
2023-04-02T14:23:25.242Z,99338.52
2023-04-02T14:24:36.784Z,99340.20
2023-04-02T14:26:07.487Z,99339.06
2023-04-02T14:27:13.337Z,99345.32
2023-04-02T14:28:19.595Z,99344.38
2023-04-02T14:29:43.704Z,99343.25
2023-04-02T14:31:19.005Z,99346.94
2023-04-02T14:34:13.927Z,99337.77
2023-04-02T14:35:38.166Z,99346.94
2023-04-02T14:36:52.926Z,99349.31
2023-04-02T14:38:26.386Z,99347.42
2023-04-02T14:39:38.615Z,99349.13
2023-04-02T14:40:56.348Z,99344.55
2023-04-02T14:42:03.153Z,99347.20
2023-04-02T14:43:11.659Z,99345.53
2023-04-02T14:44:17.242Z,99345.53
2023-04-02T14:45:29.968Z,99352.52
2023-04-02T14:46:37.475Z,99358.05
2023-04-02T14:47:46.686Z,99352.92
2023-04-02T14:48:58.265Z,99348.64
2023-04-02T14:50:04.078Z,99344.01
2023-04-02T14:51:19.337Z,99344.19
2023-04-02T14:52:25.115Z,99352.92
2023-04-02T14:53:34.937Z,99350.35
2023-04-02T14:54:55.799Z,99352.92
2023-04-02T14:56:00.945Z,99348.64
2023-04-02T14:58:29.847Z,99342.38
2023-04-02T14:59:48.493Z,99351.30
2023-04-02T15:01:16.436Z,99346.84
2023-04-02T15:02:40.417Z,99348.38
2023-04-02T15:04:19.924Z,99350.17
2023-04-02T15:06:50.029Z,99352.84
2023-04-02T15:08:02.152Z,99351.39
2023-04-02T15:09:17.415Z,99353.09
2023-04-02T15:10:32.040Z,99353.09
2023-04-02T15:11:46.934Z,99358.23
2023-04-02T15:12:52.366Z,99356.33
2023-04-02T15:14:22.976Z,99363.53
2023-04-02T15:15:39.995Z,99354.63
2023-04-02T15:16:38.196Z,99359.94
2023-04-02T15:17:40.866Z,99356.42